Time;durP1;ratioP1;P1;durP2;ratioP2;P2;SDS_P1;SDS_P2;PMS_P1;PMS_P2;Temp;Humidity;BMP_temperature;BMP_pressure;BME280_temperature;BME280_humidity;BME280_pressure;Samples;Min_cycle;Max_cycle;Signal;HPM_P1;HPM_P2
2023/07/16 00:01:21;;;;;;;;;;;;;;;;;;7365999;19;19982;-73
2023/07/16 00:03:46;;;;;;;;;;;;;;;;;;7387913;19;19990;-73
2023/07/16 00:06:11;;;;;;;;;;;;;;;;;;7365796;19;19914;-72
2023/07/16 00:08:36;;;;;;;;;;;;;;;;;;7359978;19;19921;-72
2023/07/16 00:11:03;;;;;;;;;;;;;;;;;;7359884;19;19991;-73
2023/07/16 00:13:28;;;;;;;;;;;;;;;;;;7364410;19;20284;-72
2023/07/16 00:15:53;;;;;;;;;;;;;;;;;;7365449;19;20616;-73
2023/07/16 00:18:18;;;;;;;;;;;;;;;;;;7387751;19;20335;-72
2023/07/16 00:20:44;;;;;;;;;;;;;;;;;;7368351;19;20436;-73
2023/07/16 00:23:09;;;;;;;;;;;;;;;;;;7368560;19;20758;-73
2023/07/16 00:25:35;;;;;;;;;;;;;;;;;;7375039;19;19923;-72
2023/07/16 00:28:00;;;;;;;;;;;;;;;;;;7369735;19;19938;-72
2023/07/16 00:30:25;;;;;;;;;;;;;;;;;;7388538;19;19915;-72
2023/07/16 00:32:50;;;;;;;;;;;;;;;;;;7365624;19;19919;-72
2023/07/16 00:35:16;;;;;;;;;;;;;;;;;;7364603;19;19968;-72
2023/07/16 00:37:44;;;;;;;;;;;;;;;;;;7364964;19;19921;-72
2023/07/16 00:40:10;;;;;;;;;;;;;;;;;;7363064;19;20138;-72
2023/07/16 00:42:35;;;;;;;;;;;;;;;;;;7386052;19;20364;-73
2023/07/16 00:45:00;;;;;;;;;;;;;;;;;;7366190;19;19978;-73
2023/07/16 00:47:26;;;;;;;;;;;;;;;;;;7361236;19;19923;-73
2023/07/16 00:49:51;;;;;;;;;;;;;;;;;;7364911;19;19919;-73
2023/07/16 00:52:18;;;;;;;;;;;;;;;;;;7362140;19;19926;-73
2023/07/16 00:54:43;;;;;;;;;;;;;;;;;;7384771;19;19935;-73
2023/07/16 00:57:09;;;;;;;;;;;;;;;;;;7362927;19;20246;-73
2023/07/16 00:59:34;;;;;;;;;;;;;;;;;;7366087;19;19927;-73
2023/07/16 01:01:59;;;;;;;;;;;;;;;;;;7363660;19;20258;-73
2023/07/16 01:04:24;;;;;;;;;;;;;;;;;;7363221;19;19921;-73
2023/07/16 01:06:52;;;;;;;;;;;;;;;;;;7368491;19;19950;-72
2023/07/16 01:09:20;;;;;;;;;;;;;;;;;;7389025;19;19911;-73
2023/07/16 01:11:46;;;;;;;;;;;;;;;;;;7364300;19;19919;-73
2023/07/16 01:14:12;;;;;;;;;;;;;;;;;;7366456;19;19923;-73
2023/07/16 01:16:38;;;;;;;;;;;;;;;;;;7365879;19;20545;-73
2023/07/16 01:19:03;;;;;;;;;;;;;;;;;;7364627;19;19929;-73
2023/07/16 01:21:38;;;;;;;;;;;;;;;;;;7384888;19;19923;-72
2023/07/16 01:24:24;;;;;;;;;;;;;;;;;;7365732;19;20397;-73
2023/07/16 01:26:55;;;;;;;;;;;;;;;;;;7364237;19;19935;-74
2023/07/16 01:29:27;;;;;;;;;;;;;;;;;;7365379;19;19918;-73
2023/07/16 01:31:54;;;;;;;;;;;;;;;;;;7364740;19;19922;-73
2023/07/16 01:34:20;;;;;;;;;;;;;;;;;;7363789;19;19918;-74
2023/07/16 01:36:46;;;;;;;;;;;;;;;;;;7386983;19;20536;-74
2023/07/16 01:39:11;;;;;;;;;;;;;;;;;;7365864;19;19923;-74
2023/07/16 01:41:36;;;;;;;;;;;;;;;;;;7362853;19;19914;-74
2023/07/16 01:44:02;;;;;;;;;;;;;;;;;;7379549;19;19919;-73
2023/07/16 01:46:27;;;;;;;;;;;;;;;;;;7376005;19;19915;-73
2023/07/16 01:48:52;;;;;;;;;;;;;;;;;;7366232;19;19926;-73
2023/07/16 01:51:19;;;;;;;;;;;;;;;;;;7385023;19;19919;-73
2023/07/16 01:53:45;;;;;;;;;;;;;;;;;;7365500;19;20271;-73
2023/07/16 01:56:10;;;;;;;;;;;;;;;;;;7364981;19;19918;-73
2023/07/16 01:58:35;;;;;;;;;;;;;;;;;;7367989;19;20361;-73
2023/07/16 02:01:00;;;;;;;;;;;;;;;;;;7367963;19;20346;-73
2023/07/16 02:03:25;;;;;;;;;;;;;;;;;;7392093;19;20358;-72
2023/07/16 02:05:51;;;;;;;;;;;;;;;;;;7372073;19;20269;-73
2023/07/16 02:08:17;;;;;;;;;;;;;;;;;;7372373;19;19974;-73
2023/07/16 02:10:43;;;;;;;;;;;;;;;;;;7372168;19;19919;-73
2023/07/16 02:13:08;;;;;;;;;;;;;;;;;;7372181;19;19919;-73
2023/07/16 02:15:33;;;;;;;;;;;;;;;;;;7392714;19;19919;-73
2023/07/16 02:17:58;;;;;;;;;;;;;;;;;;7370063;19;19911;-73
2023/07/16 02:20:23;;;;;;;;;;;;;;;;;;7372108;19;20381;-73
2023/07/16 02:22:49;;;;;;;;;;;;;;;;;;7371712;19;20314;-73
2023/07/16 02:25:14;;;;;;;;;;;;;;;;;;7372619;19;19914;-73
2023/07/16 02:27:39;;;;;;;;;;;;;;;;;;7392469;19;19919;-72
2023/07/16 02:30:06;;;;;;;;;;;;;;;;;;7369657;19;19919;-72
2023/07/16 02:32:31;;;;;;;;;;;;;;;;;;7368960;19;20371;-73
2023/07/16 02:34:57;;;;;;;;;;;;;;;;;;7378194;19;19919;-72
2023/07/16 02:37:22;;;;;;;;;;;;;;;;;;7370205;19;20465;-73
2023/07/16 02:39:47;;;;;;;;;;;;;;;;;;7384379;19;20350;-73
2023/07/16 02:42:13;;;;;;;;;;;;;;;;;;7384044;19;20618;-73
2023/07/16 02:44:41;;;;;;;;;;;;;;;;;;7374345;19;20067;-73
2023/07/16 02:47:07;;;;;;;;;;;;;;;;;;7379207;19;19994;-73
2023/07/16 02:49:32;;;;;;;;;;;;;;;;;;7391350;19;19926;-73
2023/07/16 02:51:57;;;;;;;;;;;;;;;;;;7378311;19;19928;-72
2023/07/16 02:54:22;;;;;;;;;;;;;;;;;;7394218;19;20774;-72
2023/07/16 02:56:48;;;;;;;;;;;;;;;;;;7368718;19;20967;-73
2023/07/16 02:59:13;;;;;;;;;;;;;;;;;;7369939;19;19923;-72
2023/07/16 03:01:38;;;;;;;;;;;;;;;;;;7369695;19;19983;-73
2023/07/16 03:04:03;;;;;;;;;;;;;;;;;;7369949;19;19948;-73
2023/07/16 03:06:28;;;;;;;;;;;;;;;;;;7391191;19;19923;-73
2023/07/16 03:08:54;;;;;;;;;;;;;;;;;;7379791;19;19944;-73
2023/07/16 03:11:19;;;;;;;;;;;;;;;;;;7378422;19;19907;-72
2023/07/16 03:13:44;;;;;;;;;;;;;;;;;;7370414;19;19998;-72
2023/07/16 03:16:09;;;;;;;;;;;;;;;;;;7369151;19;19927;-72
2023/07/16 03:18:37;;;;;;;;;;;;;;;;;;7386547;19;19914;-73
2023/07/16 03:21:03;;;;;;;;;;;;;;;;;;7368757;19;19978;-73
2023/07/16 03:23:28;;;;;;;;;;;;;;;;;;7372958;19;20846;-73
2023/07/16 03:25:53;;;;;;;;;;;;;;;;;;7370618;19;19923;-72
2023/07/16 03:28:19;;;;;;;;;;;;;;;;;;7368466;19;20282;-72
2023/07/16 03:30:48;;;;;;;;;;;;;;;;;;7388634;19;19911;-73
2023/07/16 03:33:13;;;;;;;;;;;;;;;;;;7371053;19;19939;-72
2023/07/16 03:35:39;;;;;;;;;;;;;;;;;;7372554;19;20695;-72
2023/07/16 03:38:04;;;;;;;;;;;;;;;;;;7369233;19;19915;-73
2023/07/16 03:40:29;;;;;;;;;;;;;;;;;;7366942;19;19923;-72
2023/07/16 03:42:55;;;;;;;;;;;;;;;;;;7365957;19;20365;-72
2023/07/16 03:45:20;;;;;;;;;;;;;;;;;;7389368;19;19929;-72
2023/07/16 03:47:45;;;;;;;;;;;;;;;;;;7368174;19;19925;-72
2023/07/16 03:50:11;;;;;;;;;;;;;;;;;;7365112;19;19934;-72
2023/07/16 03:52:36;;;;;;;;;;;;;;;;;;7368172;19;19986;-73
2023/07/16 03:55:02;;;;;;;;;;;;;;;;;;7367852;19;19943;-73
2023/07/16 03:57:30;;;;;;;;;;;;;;;;;;7394322;19;19911;-72
2023/07/16 03:59:55;;;;;;;;;;;;;;;;;;7365439;19;19929;-72
2023/07/16 04:02:21;;;;;;;;;;;;;;;;;;7365046;19;19911;-72
2023/07/16 04:04:46;;;;;;;;;;;;;;;;;;7366573;19;19933;-72
2023/07/16 04:07:11;;;;;;;;;;;;;;;;;;7368295;19;19923;-72
2023/07/16 04:09:37;;;;;;;;;;;;;;;;;;7388882;19;20291;-72
2023/07/16 04:12:03;;;;;;;;;;;;;;;;;;7371069;19;19919;-72
2023/07/16 04:14:28;;;;;;;;;;;;;;;;;;7368992;19;19937;-72
2023/07/16 04:16:53;;;;;;;;;;;;;;;;;;7365775;19;19959;-72
2023/07/16 04:19:19;;;;;;;;;;;;;;;;;;7366221;19;20213;-72
2023/07/16 04:21:44;;;;;;;;;;;;;;;;;;7388740;19;19931;-72
2023/07/16 04:24:09;;;;;;;;;;;;;;;;;;7366726;19;19918;-72
2023/07/16 04:26:34;;;;;;;;;;;;;;;;;;7369143;19;19970;-72
2023/07/16 04:29:00;;;;;;;;;;;;;;;;;;7366704;19;19922;-71
2023/07/16 04:31:25;;;;;;;;;;;;;;;;;;7364570;19;19922;-71
2023/07/16 04:33:50;;;;;;;;;;;;;;;;;;7364366;19;19926;-71
2023/07/16 04:36:16;;;;;;;;;;;;;;;;;;7388126;19;19951;-72
2023/07/16 04:38:41;;;;;;;;;;;;;;;;;;7367155;19;19951;-72
2023/07/16 04:41:06;;;;;;;;;;;;;;;;;;7381570;19;19930;-72
2023/07/16 04:43:31;;;;;;;;;;;;;;;;;;7382542;19;19923;-71
2023/07/16 04:45:56;;;;;;;;;;;;;;;;;;7370838;19;19987;-72
2023/07/16 04:48:22;;;;;;;;;;;;;;;;;;7390881;19;20342;-71
2023/07/16 04:50:47;;;;;;;;;;;;;;;;;;7368150;19;19918;-71
2023/07/16 04:53:12;;;;;;;;;;;;;;;;;;7371769;19;19919;-71
2023/07/16 04:55:39;;;;;;;;;;;;;;;;;;7376191;19;19919;-71
2023/07/16 04:58:04;;;;;;;;;;;;;;;;;;7364178;19;19919;-71
2023/07/16 05:00:31;;;;;;;;;;;;;;;;;;7387785;19;20321;-71
2023/07/16 05:02:56;;;;;;;;;;;;;;;;;;7366605;19;20061;-71
2023/07/16 05:05:21;;;;;;;;;;;;;;;;;;7365804;19;19922;-71
2023/07/16 05:07:46;;;;;;;;;;;;;;;;;;7363921;19;19922;-71
2023/07/16 05:10:12;;;;;;;;;;;;;;;;;;7364310;19;20343;-70
2023/07/16 05:12:37;;;;;;;;;;;;;;;;;;7386068;19;20338;-71
2023/07/16 05:15:02;;;;;;;;;;;;;;;;;;7364866;19;19919;-71
2023/07/16 05:17:27;;;;;;;;;;;;;;;;;;7368686;19;20583;-72
2023/07/16 05:19:53;;;;;;;;;;;;;;;;;;7367944;19;20550;-71
2023/07/16 05:22:18;;;;;;;;;;;;;;;;;;7369886;19;19911;-71
2023/07/16 05:24:44;;;;;;;;;;;;;;;;;;7393794;19;19926;-71
2023/07/16 05:27:09;;;;;;;;;;;;;;;;;;7364868;19;19999;-71
2023/07/16 05:29:34;;;;;;;;;;;;;;;;;;7370840;19;19922;-72
2023/07/16 05:32:00;;;;;;;;;;;;;;;;;;7371097;19;19919;-72
2023/07/16 05:34:25;;;;;;;;;;;;;;;;;;7372319;19;19923;-71
2023/07/16 05:36:52;;;;;;;;;;;;;;;;;;7370392;19;19925;-71
2023/07/16 05:39:17;;;;;;;;;;;;;;;;;;7396712;19;19927;-73
2023/07/16 05:41:43;;;;;;;;;;;;;;;;;;7375130;19;19915;-72
2023/07/16 05:44:08;;;;;;;;;;;;;;;;;;7372659;19;19906;-72
2023/07/16 05:46:35;;;;;;;;;;;;;;;;;;7372300;19;19926;-72
2023/07/16 05:49:00;;;;;;;;;;;;;;;;;;7372420;19;20362;-71
2023/07/16 05:51:25;;;;;;;;;;;;;;;;;;7403909;19;19932;-72
2023/07/16 05:53:50;;;;;;;;;;;;;;;;;;7376746;19;20237;-72
2023/07/16 05:56:16;;;;;;;;;;;;;;;;;;7375188;19;19975;-72
2023/07/16 05:58:41;;;;;;;;;;;;;;;;;;7370013;19;19923;-72
2023/07/16 06:01:06;;;;;;;;;;;;;;;;;;7370550;19;19928;-72
2023/07/16 06:03:34;;;;;;;;;;;;;;;;;;7391097;19;19928;-72
2023/07/16 06:06:00;;;;;;;;;;;;;;;;;;7372342;19;19923;-72
2023/07/16 06:08:25;;;;;;;;;;;;;;;;;;7370081;19;20573;-73
2023/07/16 06:10:50;;;;;;;;;;;;;;;;;;7374046;19;20287;-72
2023/07/16 06:13:16;;;;;;;;;;;;;;;;;;7377573;19;20350;-72
2023/07/16 06:15:41;;;;;;;;;;;;;;;;;;7396896;19;20678;-72
2023/07/16 06:18:06;;;;;;;;;;;;;;;;;;7370869;19;20027;-72
2023/07/16 06:20:32;;;;;;;;;;;;;;;;;;7371209;19;19929;-72
2023/07/16 06:22:57;;;;;;;;;;;;;;;;;;7373135;19;20271;-74
2023/07/16 06:25:22;;;;;;;;;;;;;;;;;;7372292;19;19919;-73
2023/07/16 06:27:47;;;;;;;;;;;;;;;;;;7380495;19;19919;-71
2023/07/16 06:30:13;;;;;;;;;;;;;;;;;;7378845;19;19933;-72
2023/07/16 06:32:38;;;;;;;;;;;;;;;;;;7365251;19;19929;-72
2023/07/16 06:35:03;;;;;;;;;;;;;;;;;;7369869;19;19947;-72
2023/07/16 06:37:28;;;;;;;;;;;;;;;;;;7358962;19;20745;-71
2023/07/16 06:39:54;;;;;;;;;;;;;;;;;;7365196;19;19978;-72
2023/07/16 06:42:19;;;;;;;;;;;;;;;;;;7388215;19;19971;-72
2023/07/16 06:44:44;;;;;;;;;;;;;;;;;;7370585;19;19925;-72
2023/07/16 06:47:10;;;;;;;;;;;;;;;;;;7369129;19;19919;-72
2023/07/16 06:49:35;;;;;;;;;;;;;;;;;;7378683;19;19922;-72
2023/07/16 06:52:01;;;;;;;;;;;;;;;;;;7377466;19;19915;-72
2023/07/16 06:54:27;;;;;;;;;;;;;;;;;;7396885;19;19943;-70
2023/07/16 06:56:52;;;;;;;;;;;;;;;;;;7373101;19;20401;-71
2023/07/16 06:59:17;;;;;;;;;;;;;;;;;;7369965;19;19919;-72
2023/07/16 07:01:42;;;;;;;;;;;;;;;;;;7368559;19;19956;-72
2023/07/16 07:04:08;;;;;;;;;;;;;;;;;;7362399;19;19946;-72
2023/07/16 07:06:33;;;;;;;;;;;;;;;;;;7391860;19;19944;-74
2023/07/16 07:08:58;;;;;;;;;;;;;;;;;;7368185;19;19915;-73
2023/07/16 07:11:23;;;;;;;;;;;;;;;;;;7368618;19;19911;-71
2023/07/16 07:13:50;;;;;;;;;;;;;;;;;;7370424;19;19948;-72
2023/07/16 07:16:15;;;;;;;;;;;;;;;;;;7368391;19;19935;-73
2023/07/16 07:18:40;;;;;;;;;;;;;;;;;;7390304;19;19911;-72
2023/07/16 07:21:06;;;;;;;;;;;;;;;;;;7367596;19;19926;-74
2023/07/16 07:23:31;;;;;;;;;;;;;;;;;;7370404;19;19907;-73
2023/07/16 07:25:56;;;;;;;;;;;;;;;;;;7366970;19;19922;-73
2023/07/16 07:28:21;;;;;;;;;;;;;;;;;;7370102;19;20350;-73
2023/07/16 07:30:46;;;;;;;;;;;;;;;;;;7390302;19;19914;-74
2023/07/16 07:33:12;;;;;;;;;;;;;;;;;;7371953;19;20436;-74
2023/07/16 07:35:37;;;;;;;;;;;;;;;;;;7370551;19;19911;-74
2023/07/16 07:38:02;;;;;;;;;;;;;;;;;;7367611;19;19914;-74
2023/07/16 07:40:28;;;;;;;;;;;;;;;;;;7380289;19;19949;-73
2023/07/16 07:42:53;;;;;;;;;;;;;;;;;;7377027;19;20362;-73
2023/07/16 07:45:18;;;;;;;;;;;;;;;;;;7403488;19;20635;-73
2023/07/16 07:47:43;;;;;;;;;;;;;;;;;;7376201;19;19918;-73
2023/07/16 07:50:09;;;;;;;;;;;;;;;;;;7367783;19;19919;-73
2023/07/16 07:52:34;;;;;;;;;;;;;;;;;;7366812;19;19919;-73
2023/07/16 07:54:59;;;;;;;;;;;;;;;;;;7371280;19;19915;-73
2023/07/16 07:57:25;;;;;;;;;;;;;;;;;;7384035;19;19915;-72
2023/07/16 07:59:55;;;;;;;;;;;;;;;;;;7370965;19;19922;-73
2023/07/16 08:02:23;;;;;;;;;;;;;;;;;;7373744;19;19927;-73
2023/07/16 08:04:48;;;;;;;;;;;;;;;;;;7378943;19;19926;-73
2023/07/16 08:07:13;;;;;;;;;;;;;;;;;;7371026;19;19927;-75
2023/07/16 08:09:38;;;;;;;;;;;;;;;;;;7387977;19;19926;-72
2023/07/16 08:12:04;;;;;;;;;;;;;;;;;;7365099;19;19918;-73
2023/07/16 08:14:29;;;;;;;;;;;;;;;;;;7366884;19;19923;-74
2023/07/16 08:16:54;;;;;;;;;;;;;;;;;;7366986;19;19931;-75
2023/07/16 08:19:19;;;;;;;;;;;;;;;;;;7368602;19;19921;-73
2023/07/16 08:21:45;;;;;;;;;;;;;;;;;;7390304;19;19926;-74
2023/07/16 08:24:10;;;;;;;;;;;;;;;;;;7368114;19;19944;-74
2023/07/16 08:26:35;;;;;;;;;;;;;;;;;;7369182;19;19915;-74
2023/07/16 08:29:01;;;;;;;;;;;;;;;;;;7370254;19;20396;-74
2023/07/16 08:31:26;;;;;;;;;;;;;;;;;;7369361;19;19918;-74
2023/07/16 08:33:51;;;;;;;;;;;;;;;;;;7369192;19;19949;-75
2023/07/16 08:36:17;;;;;;;;;;;;;;;;;;7393567;19;19907;-74
2023/07/16 08:38:42;;;;;;;;;;;;;;;;;;7370920;19;19923;-74
2023/07/16 08:41:07;;;;;;;;;;;;;;;;;;7371025;19;19919;-74
2023/07/16 08:43:33;;;;;;;;;;;;;;;;;;7371407;19;20354;-74
2023/07/16 08:45:58;;;;;;;;;;;;;;;;;;7371602;19;19963;-73
2023/07/16 08:48:24;;;;;;;;;;;;;;;;;;7389961;19;19915;-74
2023/07/16 08:50:49;;;;;;;;;;;;;;;;;;7370780;19;20648;-73
2023/07/16 08:53:15;;;;;;;;;;;;;;;;;;7370515;19;20011;-74
2023/07/16 08:55:41;;;;;;;;;;;;;;;;;;7366711;19;19922;-73
2023/07/16 08:58:07;;;;;;;;;;;;;;;;;;7368121;19;19972;-73
2023/07/16 09:00:33;;;;;;;;;;;;;;;;;;7389166;19;19935;-74
2023/07/16 09:02:58;;;;;;;;;;;;;;;;;;7369757;19;19926;-74
2023/07/16 09:05:23;;;;;;;;;;;;;;;;;;7368814;19;20654;-74
2023/07/16 09:07:49;;;;;;;;;;;;;;;;;;7371878;19;19939;-74
2023/07/16 09:10:15;;;;;;;;;;;;;;;;;;7369085;19;19996;-75
2023/07/16 09:12:43;;;;;;;;;;;;;;;;;;7390038;19;19937;-74
2023/07/16 09:15:16;;;;;;;;;;;;;;;;;;7371686;19;27790;-74
2023/07/16 09:17:41;;;;;;;;;;;;;;;;;;7370915;19;19986;-74
2023/07/16 09:20:07;;;;;;;;;;;;;;;;;;7370013;19;19931;-74
2023/07/16 09:22:33;;;;;;;;;;;;;;;;;;7369423;19;19922;-74
2023/07/16 09:24:59;;;;;;;;;;;;;;;;;;7369118;19;19922;-74
2023/07/16 09:27:28;;;;;;;;;;;;;;;;;;7390020;19;19915;-75
2023/07/16 09:29:53;;;;;;;;;;;;;;;;;;7374287;19;19923;-74
2023/07/16 09:32:19;;;;;;;;;;;;;;;;;;7386050;19;19926;-74
2023/07/16 09:34:45;;;;;;;;;;;;;;;;;;7379822;19;19919;-74
2023/07/16 09:37:10;;;;;;;;;;;;;;;;;;7372525;19;19951;-74
2023/07/16 09:39:37;;;;;;;;;;;;;;;;;;7389789;19;19919;-74
2023/07/16 09:42:02;;;;;;;;;;;;;;;;;;7366694;19;19946;-74
2023/07/16 09:44:29;;;;;;;;;;;;;;;;;;7366686;19;19922;-74
2023/07/16 09:46:54;;;;;;;;;;;;;;;;;;7366546;19;19990;-73
2023/07/16 09:49:19;;;;;;;;;;;;;;;;;;7368207;19;20345;-74
2023/07/16 09:51:45;;;;;;;;;;;;;;;;;;7388914;19;19940;-73
2023/07/16 09:54:12;;;;;;;;;;;;;;;;;;7367842;19;19922;-74
2023/07/16 09:56:40;;;;;;;;;;;;;;;;;;7366862;19;19934;-74
2023/07/16 09:59:07;;;;;;;;;;;;;;;;;;7367749;19;19922;-74
2023/07/16 10:01:35;;;;;;;;;;;;;;;;;;7366245;19;20707;-74
2023/07/16 10:04:09;;;;;;;;;;;;;;;;;;7368587;19;20016;-74
2023/07/16 10:06:34;;;;;;;;;;;;;;;;;;7388832;19;20567;-75
2023/07/16 10:08:59;;;;;;;;;;;;;;;;;;7367640;19;19930;-74
2023/07/16 10:11:25;;;;;;;;;;;;;;;;;;7365867;19;20587;-75
2023/07/16 10:13:50;;;;;;;;;;;;;;;;;;7366549;19;19911;-74
2023/07/16 10:16:27;;;;;;;;;;;;;;;;;;7374820;19;20390;-75
2023/07/16 10:18:55;;;;;;;;;;;;;;;;;;7375584;19;19915;-75
2023/07/16 10:21:25;;;;;;;;;;;;;;;;;;7398048;19;19926;-75
2023/07/16 10:23:56;;;;;;;;;;;;;;;;;;7378969;19;19922;-74
2023/07/16 10:26:25;;;;;;;;;;;;;;;;;;7377227;19;20536;-75
2023/07/16 10:28:51;;;;;;;;;;;;;;;;;;7372906;19;19918;-74
2023/07/16 10:31:25;;;;;;;;;;;;;;;;;;7374130;19;19958;-74
2023/07/16 10:33:58;;;;;;;;;;;;;;;;;;7370970;19;20544;-74
2023/07/16 10:36:23;;;;;;;;;;;;;;;;;;7394184;19;19957;-74
2023/07/16 10:38:48;;;;;;;;;;;;;;;;;;7372213;19;19915;-75
2023/07/16 10:41:14;;;;;;;;;;;;;;;;;;7371897;19;19922;-74
2023/07/16 10:43:39;;;;;;;;;;;;;;;;;;7372814;19;19915;-74
2023/07/16 10:46:05;;;;;;;;;;;;;;;;;;7372591;19;19914;-74
2023/07/16 10:48:30;;;;;;;;;;;;;;;;;;7392596;19;19994;-74
2023/07/16 10:50:55;;;;;;;;;;;;;;;;;;7369097;19;19934;-74
2023/07/16 10:53:21;;;;;;;;;;;;;;;;;;7374985;19;19935;-74
2023/07/16 10:55:46;;;;;;;;;;;;;;;;;;7374677;19;19943;-74
2023/07/16 10:58:11;;;;;;;;;;;;;;;;;;7373511;19;19919;-74
2023/07/16 11:00:38;;;;;;;;;;;;;;;;;;7395168;19;19923;-73
2023/07/16 11:03:04;;;;;;;;;;;;;;;;;;7374149;19;19934;-74
2023/07/16 11:05:29;;;;;;;;;;;;;;;;;;7372458;19;19919;-74
2023/07/16 11:07:54;;;;;;;;;;;;;;;;;;7373546;19;20319;-74
2023/07/16 11:10:19;;;;;;;;;;;;;;;;;;7372860;19;20337;-73
2023/07/16 11:12:50;;;;;;;;;;;;;;;;;;7394203;19;19934;-74
2023/07/16 11:15:15;;;;;;;;;;;;;;;;;;7373459;19;19962;-73
2023/07/16 11:17:40;;;;;;;;;;;;;;;;;;7371182;19;20246;-74
2023/07/16 11:20:09;;;;;;;;;;;;;;;;;;7371218;19;19955;-74
2023/07/16 11:22:36;;;;;;;;;;;;;;;;;;7373110;19;20330;-73
2023/07/16 11:25:02;;;;;;;;;;;;;;;;;;7373483;19;19915;-74
2023/07/16 11:27:29;;;;;;;;;;;;;;;;;;7395584;19;20250;-74
2023/07/16 11:29:56;;;;;;;;;;;;;;;;;;7376369;19;19923;-74
2023/07/16 11:32:27;;;;;;;;;;;;;;;;;;7377416;19;19930;-73
2023/07/16 11:34:55;;;;;;;;;;;;;;;;;;7374974;19;19919;-74
2023/07/16 11:37:21;;;;;;;;;;;;;;;;;;7372344;19;19950;-73
2023/07/16 11:39:46;;;;;;;;;;;;;;;;;;7395539;19;20251;-74
2023/07/16 11:42:11;;;;;;;;;;;;;;;;;;7371244;19;19952;-74
2023/07/16 11:44:37;;;;;;;;;;;;;;;;;;7373025;19;20540;-73
2023/07/16 11:47:03;;;;;;;;;;;;;;;;;;7371911;19;20052;-74
2023/07/16 11:49:28;;;;;;;;;;;;;;;;;;7377070;19;19918;-73
2023/07/16 11:51:53;;;;;;;;;;;;;;;;;;7389586;19;19930;-74
2023/07/16 11:54:19;;;;;;;;;;;;;;;;;;7403723;19;19914;-75
2023/07/16 11:56:44;;;;;;;;;;;;;;;;;;7372984;19;20568;-74
2023/07/16 11:59:09;;;;;;;;;;;;;;;;;;7373672;19;19911;-74
2023/07/16 12:01:34;;;;;;;;;;;;;;;;;;7370678;19;19925;-73
2023/07/16 12:03:59;;;;;;;;;;;;;;;;;;7375924;19;19919;-74
2023/07/16 12:06:25;;;;;;;;;;;;;;;;;;7394314;19;19922;-74
2023/07/16 12:08:50;;;;;;;;;;;;;;;;;;7376418;19;20004;-74
2023/07/16 12:11:15;;;;;;;;;;;;;;;;;;7377565;19;19918;-74
2023/07/16 12:13:40;;;;;;;;;;;;;;;;;;7379456;19;19923;-75
2023/07/16 12:16:06;;;;;;;;;;;;;;;;;;7379275;19;20989;-74
2023/07/16 12:18:31;;;;;;;;;;;;;;;;;;7399350;19;19931;-74
2023/07/16 12:20:56;;;;;;;;;;;;;;;;;;7377762;19;20362;-74
2023/07/16 12:23:22;;;;;;;;;;;;;;;;;;7385308;19;19919;-75
2023/07/16 12:25:48;;;;;;;;;;;;;;;;;;7389642;19;19922;-74
2023/07/16 12:28:13;;;;;;;;;;;;;;;;;;7385727;19;19940;-75
2023/07/16 12:30:39;;;;;;;;;;;;;;;;;;7407689;19;19922;-75
2023/07/16 12:33:04;;;;;;;;;;;;;;;;;;7383183;19;19944;-74
2023/07/16 12:35:29;;;;;;;;;;;;;;;;;;7384704;19;19915;-74
2023/07/16 12:37:54;;;;;;;;;;;;;;;;;;7376441;19;20020;-74
2023/07/16 12:40:20;;;;;;;;;;;;;;;;;;7368813;19;19918;-75
2023/07/16 12:42:45;;;;;;;;;;;;;;;;;;7390354;19;19919;-74
2023/07/16 12:45:10;;;;;;;;;;;;;;;;;;7368603;19;19929;-73
2023/07/16 12:47:38;;;;;;;;;;;;;;;;;;7364267;19;20281;-73
2023/07/16 12:50:03;;;;;;;;;;;;;;;;;;7364387;19;19951;-75
2023/07/16 12:52:29;;;;;;;;;;;;;;;;;;7367176;19;19918;-73
2023/07/16 12:54:54;;;;;;;;;;;;;;;;;;7369090;19;19918;-73
2023/07/16 12:57:19;;;;;;;;;;;;;;;;;;7388489;19;20330;-73
2023/07/16 12:59:44;;;;;;;;;;;;;;;;;;7364129;19;20289;-73
2023/07/16 13:02:10;;;;;;;;;;;;;;;;;;7365245;19;19986;-74
2023/07/16 13:04:35;;;;;;;;;;;;;;;;;;7366171;19;19954;-74
2023/07/16 13:07:00;;;;;;;;;;;;;;;;;;7366041;19;19914;-75
2023/07/16 13:09:26;;;;;;;;;;;;;;;;;;7391627;19;19932;-74
2023/07/16 13:11:51;;;;;;;;;;;;;;;;;;7368871;19;19927;-75
2023/07/16 13:14:17;;;;;;;;;;;;;;;;;;7371514;19;19950;-76
2023/07/16 13:16:42;;;;;;;;;;;;;;;;;;7370771;19;20350;-74
2023/07/16 13:19:07;;;;;;;;;;;;;;;;;;7367157;19;19922;-74
2023/07/16 13:21:33;;;;;;;;;;;;;;;;;;7393814;19;19918;-75
2023/07/16 13:23:58;;;;;;;;;;;;;;;;;;7370803;19;20334;-74
2023/07/16 13:26:23;;;;;;;;;;;;;;;;;;7370368;19;19919;-75
2023/07/16 13:28:50;;;;;;;;;;;;;;;;;;7371459;19;19960;-75
2023/07/16 13:31:15;;;;;;;;;;;;;;;;;;7367695;19;20370;-75
2023/07/16 13:33:40;;;;;;;;;;;;;;;;;;7390562;19;19945;-76
2023/07/16 13:36:05;;;;;;;;;;;;;;;;;;7367822;19;19930;-76
2023/07/16 13:38:33;;;;;;;;;;;;;;;;;;7369665;19;19925;-76
2023/07/16 13:40:59;;;;;;;;;;;;;;;;;;7368555;19;20405;-76
2023/07/16 13:43:24;;;;;;;;;;;;;;;;;;7369746;19;20065;-76
2023/07/16 13:45:49;;;;;;;;;;;;;;;;;;7369327;19;20692;-76
2023/07/16 13:48:14;;;;;;;;;;;;;;;;;;7385525;19;20255;-75
2023/07/16 13:50:40;;;;;;;;;;;;;;;;;;7371853;19;19932;-75
2023/07/16 13:53:05;;;;;;;;;;;;;;;;;;7373116;19;19951;-75
2023/07/16 13:55:30;;;;;;;;;;;;;;;;;;7381641;19;19915;-75
2023/07/16 13:57:55;;;;;;;;;;;;;;;;;;7382281;19;19979;-76
2023/07/16 14:00:21;;;;;;;;;;;;;;;;;;7401395;19;19919;-75
2023/07/16 14:02:46;;;;;;;;;;;;;;;;;;7373271;19;20365;-74
2023/07/16 14:05:11;;;;;;;;;;;;;;;;;;7367601;19;20368;-74
2023/07/16 14:07:37;;;;;;;;;;;;;;;;;;7372944;19;20344;-74
2023/07/16 14:10:02;;;;;;;;;;;;;;;;;;7370658;19;19915;-74
2023/07/16 14:12:27;;;;;;;;;;;;;;;;;;7391172;19;20216;-74
2023/07/16 14:14:52;;;;;;;;;;;;;;;;;;7370230;19;19938;-75
2023/07/16 14:17:18;;;;;;;;;;;;;;;;;;7368329;19;20482;-75
2023/07/16 14:19:43;;;;;;;;;;;;;;;;;;7369501;19;20439;-76
2023/07/16 14:22:11;;;;;;;;;;;;;;;;;;7369160;19;19923;-76
2023/07/16 14:24:36;;;;;;;;;;;;;;;;;;7392081;19;19919;-75
2023/07/16 14:27:02;;;;;;;;;;;;;;;;;;7368904;19;20310;-76
2023/07/16 14:29:29;;;;;;;;;;;;;;;;;;7370325;19;20353;-76
2023/07/16 14:31:54;;;;;;;;;;;;;;;;;;7370152;19;19922;-76
2023/07/16 14:34:19;;;;;;;;;;;;;;;;;;7370760;19;19923;-74
2023/07/16 14:36:45;;;;;;;;;;;;;;;;;;7392618;19;19919;-74
2023/07/16 14:39:10;;;;;;;;;;;;;;;;;;7370917;19;20352;-75
2023/07/16 14:41:35;;;;;;;;;;;;;;;;;;7370690;19;19923;-76
2023/07/16 14:44:00;;;;;;;;;;;;;;;;;;7372263;19;19918;-74
2023/07/16 14:46:26;;;;;;;;;;;;;;;;;;7377316;19;19950;-74
2023/07/16 14:48:55;;;;;;;;;;;;;;;;;;7368345;19;19914;-74
2023/07/16 14:51:20;;;;;;;;;;;;;;;;;;7392032;19;19955;-74
2023/07/16 14:53:45;;;;;;;;;;;;;;;;;;7374600;19;20640;-75
2023/07/16 14:56:10;;;;;;;;;;;;;;;;;;7381032;19;19919;-74
2023/07/16 14:58:37;;;;;;;;;;;;;;;;;;7373650;19;19935;-77
2023/07/16 15:01:03;;;;;;;;;;;;;;;;;;7367199;19;19939;-75
2023/07/16 15:03:29;;;;;;;;;;;;;;;;;;7392134;19;19929;-75
2023/07/16 15:05:57;;;;;;;;;;;;;;;;;;7366915;19;19978;-76
2023/07/16 15:08:23;;;;;;;;;;;;;;;;;;7368852;19;20448;-76
2023/07/16 15:10:48;;;;;;;;;;;;;;;;;;7369375;19;19926;-76
2023/07/16 15:13:13;;;;;;;;;;;;;;;;;;7371052;19;20684;-76
2023/07/16 15:15:39;;;;;;;;;;;;;;;;;;7396841;19;20250;-76
2023/07/16 15:18:04;;;;;;;;;;;;;;;;;;7372195;19;19919;-75
2023/07/16 15:20:29;;;;;;;;;;;;;;;;;;7374343;19;19979;-77
2023/07/16 15:22:54;;;;;;;;;;;;;;;;;;7377658;19;19915;-76
2023/07/16 15:25:20;;;;;;;;;;;;;;;;;;7378132;19;19930;-75
2023/07/16 15:27:45;;;;;;;;;;;;;;;;;;7399386;19;19915;-76
2023/07/16 15:30:12;;;;;;;;;;;;;;;;;;7372633;19;19962;-74
2023/07/16 15:32:38;;;;;;;;;;;;;;;;;;7376121;19;19919;-74
2023/07/16 15:35:03;;;;;;;;;;;;;;;;;;7369689;19;20409;-74
2023/07/16 15:37:28;;;;;;;;;;;;;;;;;;7370775;19;19945;-75
2023/07/16 15:39:58;;;;;;;;;;;;;;;;;;7369491;19;19946;-75
2023/07/16 15:42:26;;;;;;;;;;;;;;;;;;7393699;19;19945;-76
2023/07/16 15:44:51;;;;;;;;;;;;;;;;;;7369640;19;19927;-74
2023/07/16 15:47:16;;;;;;;;;;;;;;;;;;7366855;19;19925;-75
2023/07/16 15:49:41;;;;;;;;;;;;;;;;;;7370191;19;20404;-76
2023/07/16 15:52:07;;;;;;;;;;;;;;;;;;7368227;19;20004;-75
2023/07/16 15:54:32;;;;;;;;;;;;;;;;;;7390720;19;19915;-77
2023/07/16 15:56:57;;;;;;;;;;;;;;;;;;7371238;19;20020;-77
2023/07/16 15:59:22;;;;;;;;;;;;;;;;;;7371943;19;19919;-76
2023/07/16 16:01:48;;;;;;;;;;;;;;;;;;7365349;19;19940;-76
2023/07/16 16:04:13;;;;;;;;;;;;;;;;;;7365657;19;19911;-75
2023/07/16 16:06:39;;;;;;;;;;;;;;;;;;7389373;19;19911;-76
2023/07/16 16:09:04;;;;;;;;;;;;;;;;;;7370855;19;19955;-76
2023/07/16 16:11:30;;;;;;;;;;;;;;;;;;7370429;19;19915;-77
2023/07/16 16:13:55;;;;;;;;;;;;;;;;;;7368044;19;19947;-76
2023/07/16 16:16:21;;;;;;;;;;;;;;;;;;7371904;19;19978;-75
2023/07/16 16:18:47;;;;;;;;;;;;;;;;;;7385409;19;19930;-75
2023/07/16 16:21:12;;;;;;;;;;;;;;;;;;7369456;19;19915;-75
2023/07/16 16:23:37;;;;;;;;;;;;;;;;;;7367912;19;19922;-76
2023/07/16 16:26:03;;;;;;;;;;;;;;;;;;7367121;19;19980;-75
2023/07/16 16:28:28;;;;;;;;;;;;;;;;;;7367005;19;19921;-76
2023/07/16 16:30:53;;;;;;;;;;;;;;;;;;7369789;19;20362;-76
2023/07/16 16:33:18;;;;;;;;;;;;;;;;;;7391396;19;20275;-77
2023/07/16 16:35:44;;;;;;;;;;;;;;;;;;7371621;19;19914;-75